Time;durP1;ratioP1;P1;durP2;ratioP2;P2;SDS_P1;SDS_P2;PMS_P1;PMS_P2;Temp;Humidity;BMP_temperature;BMP_pressure;BME280_temperature;BME280_humidity;BME280_pressure;Samples;Min_cycle;Max_cycle;Signal;HPM_P1;HPM_P2
2022/11/28 00:00:26;;;;;;;75.37;38.13;;;;;;;0.21;92.83;100991.16;2156134;81;21024;-75
2022/11/28 00:03:27;;;;;;;65.75;37.50;;;;;;;0.17;92.94;100992.25;2186699;80;21061;-76
2022/11/28 00:06:28;;;;;;;73.60;40.03;;;;;;;0.11;92.98;100983.40;2185055;81;21002;-76
2022/11/28 00:09:29;;;;;;;71.67;41.58;;;;;;;0.08;93.01;100991.86;2181168;81;20999;-76
2022/11/28 00:12:31;;;;;;;73.55;39.03;;;;;;;0.07;93.11;100988.88;2182534;81;21036;-76
2022/11/28 00:15:32;;;;;;;70.45;40.28;;;;;;;0.07;93.12;100991.48;2180762;81;21747;-76
2022/11/28 00:18:33;;;;;;;67.47;39.38;;;;;;;0.05;93.12;100982.42;2180969;81;21089;-75
2022/11/28 00:21:34;;;;;;;75.03;39.18;;;;;;;0.04;93.10;100984.66;2180877;81;20985;-76
2022/11/28 00:24:35;;;;;;;63.08;36.45;;;;;;;0.01;93.05;100976.15;2183888;81;21019;-76
2022/11/28 00:27:37;;;;;;;66.45;38.83;;;;;;;-0.01;93.05;100973.59;2179839;81;20983;-76
2022/11/28 00:30:38;;;;;;;70.67;39.58;;;;;;;-0.04;92.97;100971.16;2188159;81;21371;-76
2022/11/28 00:33:39;;;;;;;72.67;38.78;;;;;;;-0.11;92.83;100965.41;2182637;80;20999;-76
2022/11/28 00:36:44;;;;;;;67.25;37.08;;;;;;;-0.13;92.84;100961.19;2182398;80;21065;-76
2022/11/28 00:39:45;;;;;;;76.62;39.90;;;;;;;-0.20;92.71;100963.24;2183558;81;21004;-75
2022/11/28 00:42:46;;;;;;;70.25;37.67;;;;;;;-0.24;92.70;100966.94;2180675;80;21033;-76
2022/11/28 00:45:47;;;;;;;65.55;36.05;;;;;;;-0.30;92.68;100959.43;2177439;81;21465;-76
2022/11/28 00:48:50;;;;;;;62.80;35.80;;;;;;;-0.35;92.71;100964.02;2198048;80;21021;-75
2022/11/28 00:51:51;;;;;;;63.78;34.35;;;;;;;-0.40;92.77;100961.63;2195700;80;20954;-76
2022/11/28 00:54:52;;;;;;;66.77;35.28;;;;;;;-0.41;92.92;100959.12;2202658;80;21068;-76
2022/11/28 00:57:54;;;;;;;71.50;38.53;;;;;;;-0.43;93.14;100954.43;2194808;80;21046;-76
2022/11/28 01:00:55;;;;;;;69.35;36.95;;;;;;;-0.47;93.25;100946.77;2195923;79;21605;-76
2022/11/28 01:03:59;;;;;;;66.95;33.98;;;;;;;-0.50;93.23;100941.70;2195278;80;20970;-76
2022/11/28 01:07:01;;;;;;;67.95;35.48;;;;;;;-0.52;93.19;100942.70;2196426;80;20986;-76
2022/11/28 01:10:03;;;;;;;65.67;36.17;;;;;;;-0.57;93.13;100936.39;2195052;80;21026;-76
2022/11/28 01:13:04;;;;;;;64.65;35.95;;;;;;;-0.59;93.20;100939.56;2196500;80;20978;-76
2022/11/28 01:16:07;;;;;;;65.78;36.33;;;;;;;-0.58;93.25;100934.72;2191196;80;21052;-76
2022/11/28 01:19:08;;;;;;;57.78;33.48;;;;;;;-0.60;93.18;100933.94;2191706;80;21103;-76
2022/11/28 01:22:09;;;;;;;61.68;34.10;;;;;;;-0.61;93.16;100936.17;2195006;80;21052;-76
2022/11/28 01:25:10;;;;;;;66.28;35.40;;;;;;;-0.64;93.11;100925.90;2191907;80;21500;-76
2022/11/28 01:28:11;;;;;;;58.80;34.40;;;;;;;-0.66;93.15;100923.81;2189546;80;22245;-76
2022/11/28 01:31:16;;;;;;;63.17;33.58;;;;;;;-0.67;93.14;100918.70;2194776;80;20990;-76
2022/11/28 01:34:18;;;;;;;62.27;34.70;;;;;;;-0.71;93.08;100911.00;2199006;80;21560;-76
2022/11/28 01:37:19;;;;;;;65.78;36.88;;;;;;;-0.75;92.97;100904.73;2194421;80;21050;-76
2022/11/28 01:40:20;;;;;;;68.05;35.52;;;;;;;-0.76;93.03;100899.11;2191179;80;20982;-76
2022/11/28 01:43:23;;;;;;;62.15;35.95;;;;;;;-0.79;93.02;100889.71;2195074;80;21030;-76
2022/11/28 01:46:24;;;;;;;63.65;34.30;;;;;;;-0.80;93.01;100893.22;2189942;80;21528;-76
2022/11/28 01:49:33;;;;;;;53.87;30.55;;;;;;;-0.82;92.99;100885.92;2192419;80;21005;-76
2022/11/28 01:52:38;;;;;;;61.85;34.65;;;;;;;-0.83;92.96;100878.20;2198474;80;20985;-76
2022/11/28 01:55:48;;;;;;;65.78;33.60;;;;;;;-0.86;92.99;100876.59;2198065;80;20966;-76
2022/11/28 01:58:55;;;;;;;61.80;34.80;;;;;;;-0.88;93.03;100868.45;2167584;81;21094;-76
2022/11/28 02:01:56;;;;;;;58.15;33.45;;;;;;;-0.88;93.13;100875.81;2215679;80;21342;-75
2022/11/28 02:04:58;;;;;;;59.98;32.73;;;;;;;-0.88;93.09;100871.90;2180339;81;21033;-75
2022/11/28 02:07:59;;;;;;;58.83;32.23;;;;;;;-0.87;93.07;100859.70;2178508;81;20990;-75
2022/11/28 02:11:46;;;;;;;55.05;30.55;;;;;;;-0.87;93.12;100859.70;2181528;81;21029;-75
2022/11/28 02:14:53;;;;;;;58.45;31.25;;;;;;;-0.86;93.17;100857.05;2155950;81;21006;-76
2022/11/28 02:18:16;;;;;;;62.23;33.45;;;;;;;-0.84;93.20;100859.12;2173440;81;20995;-76
2022/11/28 02:21:37;;;;;;;56.30;31.17;;;;;;;-0.83;93.16;100837.34;2180135;81;21101;-76
2022/11/28 02:25:14;;;;;;;57.03;31.23;;;;;;;-0.86;92.99;100830.15;2176032;81;21062;-76
2022/11/28 02:28:45;;;;;;;62.60;32.78;;;;;;;-0.88;93.01;100827.61;2169446;81;20963;-76
2022/11/28 02:32:24;;;;;;;59.18;31.93;;;;;;;-0.91;92.94;100822.55;2179393;81;21563;-76
2022/11/28 02:35:55;;;;;;;62.88;32.30;;;;;;;-0.93;92.97;100814.83;2175869;81;21065;-76
2022/11/28 02:39:12;;;;;;;;;;;;;;;-0.94;92.88;100809.21;2182703;81;20995;-76
2022/11/28 02:42:21;;;;;;;56.35;31.30;;;;;;;-0.97;92.75;100811.97;2173339;81;20197;-76
2022/11/28 02:45:40;;;;;;;58.75;32.60;;;;;;;-1.01;92.69;100817.43;2173894;81;21074;-76
2022/11/28 02:49:06;;;;;;;60.60;32.65;;;;;;;-1.04;92.71;100814.95;2181604;81;20990;-75
2022/11/28 02:52:18;;;;;;;59.27;31.57;;;;;;;-1.06;92.77;100820.25;2177360;81;21062;-75
2022/11/28 02:55:22;;;;;;;62.33;32.13;;;;;;;-1.04;92.84;100818.85;2174835;81;21071;-76
2022/11/28 02:58:23;;;;;;;54.53;30.80;;;;;;;-1.04;92.88;100819.72;2174611;81;21072;-76
2022/11/28 03:01:35;;;;;;;64.70;32.55;;;;;;;-1.01;92.84;100822.17;2172697;81;21052;-76
2022/11/28 03:05:02;;;;;;;56.48;30.45;;;;;;;-0.99;92.84;100818.17;2174854;81;21049;-76
2022/11/28 03:08:35;;;;;;;59.08;31.42;;;;;;;-0.99;92.74;100819.48;2193220;80;21060;-76
2022/11/28 03:12:07;;;;;;;60.63;31.42;;;;;;;-0.99;92.69;100809.06;2194789;80;21022;-76
2022/11/28 03:15:12;;;;;;;50.98;29.05;;;;;;;-1.02;92.66;100812.66;2193261;80;21064;-76
2022/11/28 03:18:27;;;;;;;60.08;31.80;;;;;;;-1.02;92.61;100811.81;2196302;80;21053;-76
2022/11/28 03:22:05;;;;;;;59.30;30.00;;;;;;;-1.03;92.64;100812.28;2132362;82;21024;-76
2022/11/28 03:25:34;;;;;;;56.63;30.62;;;;;;;-1.01;92.71;100813.06;2178971;79;21032;-76
2022/11/28 03:28:53;;;;;;;61.83;32.28;;;;;;;-1.00;92.67;100812.12;2195683;80;21005;-76
2022/11/28 03:31:59;;;;;;;56.18;29.50;;;;;;;-0.99;92.64;100811.66;2194301;80;21028;-76
2022/11/28 03:35:12;;;;;;;54.60;30.08;;;;;;;-0.99;92.66;100807.75;2193729;80;21126;-76
2022/11/28 03:38:25;;;;;;;58.02;30.55;;;;;;;-0.99;92.61;100807.29;2161852;80;21060;-76
2022/11/28 03:41:46;;;;;;;51.20;28.57;;;;;;;-0.98;92.67;100803.78;2192780;80;21072;-76
2022/11/28 03:44:59;;;;;;;54.48;29.23;;;;;;;-0.98;92.60;100801.65;2188079;80;21653;-76
2022/11/28 03:48:06;;;;;;;58.70;29.27;;;;;;;-1.05;92.42;100804.99;2195647;80;21436;-76
2022/11/28 03:51:17;;;;;;;55.52;30.68;;;;;;;-1.09;92.35;100806.08;2193079;80;22182;-76
2022/11/28 03:54:33;;;;;;;55.98;27.93;;;;;;;-1.11;92.38;100792.28;2194063;80;20973;-76
2022/11/28 03:57:45;;;;;;;49.63;27.62;;;;;;;-1.14;92.34;100789.83;2194092;80;21026;-76
2022/11/28 04:00:54;;;;;;;51.63;27.67;;;;;;;-1.19;92.31;100786.60;2195360;80;21525;-76
2022/11/28 04:04:19;;;;;;;51.73;28.98;;;;;;;-1.20;92.36;100788.83;2192884;80;21086;-76
2022/11/28 04:07:37;;;;;;;55.60;28.83;;;;;;;-1.20;92.38;100776.65;2148501;80;21077;-76
2022/11/28 04:10:52;;;;;;;55.70;28.83;;;;;;;-1.24;92.33;100784.24;2190754;80;20993;-76
2022/11/28 04:14:13;;;;;;;49.75;27.10;;;;;;;-1.26;92.40;100783.47;2193695;80;21088;-76
2022/11/28 04:17:23;;;;;;;51.63;28.20;;;;;;;-1.25;92.45;100785.61;2192940;80;21060;-76
2022/11/28 04:20:41;;;;;;;50.90;27.73;;;;;;;-1.28;92.35;100776.64;2193108;80;20959;-76
2022/11/28 04:23:45;;;;;;;49.55;26.57;;;;;;;-1.30;92.38;100775.41;2193089;80;21024;-76
2022/11/28 04:26:54;;;;;;;48.20;26.77;;;;;;;-1.33;92.36;100772.11;2195335;80;21049;-76
2022/11/28 04:29:59;;;;;;;52.65;27.75;;;;;;;-1.35;92.40;100777.41;2195069;80;21054;-76
2022/11/28 04:33:04;;;;;;;48.83;26.35;;;;;;;-1.36;92.43;100779.15;2189723;80;21563;-77
2022/11/28 04:36:07;;;;;;;52.13;26.20;;;;;;;-1.38;92.40;100775.80;2198308;80;21006;-76
2022/11/28 04:39:17;;;;;;;48.60;26.12;;;;;;;-1.39;92.46;100774.09;2188355;80;21103;-76
2022/11/28 04:42:37;;;;;;;52.10;26.70;;;;;;;-1.37;92.47;100771.42;2188961;80;21048;-76
2022/11/28 04:45:43;;;;;;;51.83;27.65;;;;;;;-1.41;92.39;100768.14;2195986;80;21037;-76
2022/11/28 04:48:45;;;;;;;48.02;27.07;;;;;;;-1.41;92.43;100761.63;2190559;80;20999;-76
2022/11/28 04:52:15;;;;;;;52.48;27.02;;;;;;;-1.41;92.44;100759.03;2193018;80;21022;-76
2022/11/28 04:55:25;;;;;;;50.10;27.90;;;;;;;-1.41;92.47;100759.03;2192929;80;21013;-77
2022/11/28 04:58:45;;;;;;;48.17;25.72;;;;;;;-1.40;92.43;100770.28;2195909;80;21015;-76
2022/11/28 05:01:48;;;;;;;47.00;25.33;;;;;;;-1.37;92.43;100763.16;2169418;81;21144;-76
2022/11/28 05:04:54;;;;;;;49.30;25.65;;;;;;;-1.36;92.42;100755.72;2188644;80;21026;-76
2022/11/28 05:07:52;;;;;;;53.00;26.90;;;;;;;-1.38;92.41;100758.87;2191674;80;20970;-76
2022/11/28 05:10:53;;;;;;;49.48;26.45;;;;;;;-1.38;92.41;100757.58;2197542;80;21050;-76
2022/11/28 05:13:55;;;;;;;46.55;25.97;;;;;;;-1.39;92.41;100758.47;2196445;80;20966;-77
2022/11/28 05:16:56;;;;;;;54.42;26.60;;;;;;;-1.41;92.47;100760.33;2156746;82;21547;-77
2022/11/28 05:19:57;;;;;;;49.10;26.97;;;;;;;-1.42;92.47;100753.88;2190839;79;21042;-76
2022/11/28 05:22:58;;;;;;;54.93;28.07;;;;;;;-1.41;92.52;100752.95;2183141;80;21040;-77
2022/11/28 05:26:10;;;;;;;48.63;26.85;;;;;;;-1.43;92.47;100755.65;2193533;80;20970;-77
2022/11/28 05:29:11;;;;;;;47.25;25.92;;;;;;;-1.43;92.52;100757.41;2193590;80;20948;-76
2022/11/28 05:32:13;;;;;;;49.88;27.27;;;;;;;-1.46;92.52;100749.76;2160464;82;21132;-77
2022/11/28 05:35:14;;;;;;;54.05;26.62;;;;;;;-1.50;92.54;100752.94;2175670;81;21053;-77
2022/11/28 05:38:15;;;;;;;49.20;27.55;;;;;;;-1.50;92.56;100756.02;2171792;81;21506;-76
2022/11/28 05:41:28;;;;;;;50.28;26.33;;;;;;;-1.50;92.61;100759.45;2167918;81;21116;-76
2022/11/28 05:44:29;;;;;;;49.75;27.65;;;;;;;-1.48;92.63;100754.19;2172544;81;21015;-75
2022/11/28 05:47:32;;;;;;;50.20;27.35;;;;;;;-1.48;92.66;100752.42;2162528;80;20989;-81
2022/11/28 05:50:33;;;;;;;55.60;28.90;;;;;;;-1.49;92.63;100758.98;2226664;79;21677;-80
2022/11/28 05:53:35;;;;;;;49.55;28.62;;;;;;;-1.49;92.67;100758.55;2181944;81;20975;-82
2022/11/28 05:56:36;;;;;;;55.85;28.20;;;;;;;-1.46;92.75;100757.10;2164403;80;21026;-81
2022/11/28 05:59:37;;;;;;;52.05;29.23;;;;;;;-1.40;92.76;100763.31;2176958;81;21543;-80
2022/11/28 06:02:41;;;;;;;49.42;26.48;;;;;;;-1.32;92.86;100760.77;2179496;81;21048;-79
2022/11/28 06:05:43;;;;;;;48.87;27.77;;;;;;;-1.24;92.80;100759.94;2164616;81;21545;-80
2022/11/28 06:08:46;;;;;;;52.83;29.40;;;;;;;-1.20;92.57;100758.42;2173181;81;21061;-80
2022/11/28 06:11:47;;;;;;;55.70;29.05;;;;;;;-1.15;92.40;100754.30;2172652;81;20977;-80
2022/11/28 06:14:48;;;;;;;56.02;29.52;;;;;;;-1.08;92.24;100747.01;2173525;81;20995;-80
2022/11/28 06:17:49;;;;;;;55.38;27.75;;;;;;;-1.03;92.10;100750.23;2176684;81;21010;-81
2022/11/28 06:20:50;;;;;;;53.30;28.12;;;;;;;-1.04;91.82;100752.43;2174602;81;20974;-83
2022/11/28 06:23:52;;;;;;;48.08;25.77;;;;;;;-1.04;91.74;100750.70;2167763;81;21078;-82
2022/11/28 06:26:54;;;;;;;49.03;26.20;;;;;;;-1.04;91.55;100753.30;2172307;81;21618;-83
2022/11/28 06:29:55;;;;;;;50.00;27.77;;;;;;;-0.99;91.64;100742.16;2168396;81;21535;-84
2022/11/28 06:32:56;;;;;;;52.20;28.38;;;;;;;-0.99;91.43;100738.25;2170450;81;21108;-81
2022/11/28 06:36:02;;;;;;;55.03;27.85;;;;;;;-1.02;91.35;100731.91;2173766;81;20975;-84
2022/11/28 06:39:04;;;;;;;52.33;28.32;;;;;;;-1.03;91.25;100738.05;2186429;80;21014;-84
2022/11/28 06:42:05;;;;;;;45.00;26.50;;;;;;;-1.06;91.12;100730.39;2190112;80;21580;-84
2022/11/28 06:45:08;;;;;;;57.93;28.45;;;;;;;-1.13;90.98;100731.59;2180152;80;21047;-83
2022/11/28 06:48:09;;;;;;;55.00;28.20;;;;;;;-1.19;90.98;100730.14;2167470;81;21514;-84
2022/11/28 06:51:12;;;;;;;48.80;27.98;;;;;;;-1.17;91.43;100734.83;2162458;81;21141;-82
2022/11/28 06:54:13;;;;;;;50.60;26.02;;;;;;;-1.14;91.27;100735.13;2176584;80;20978;-82
2022/11/28 06:57:14;;;;;;;46.13;24.82;;;;;;;-1.18;90.93;100732.31;2164294;81;20995;-82
2022/11/28 07:00:16;;;;;;;43.40;24.70;;;;;;;-1.24;90.51;100735.20;2162640;81;21018;-83
2022/11/28 07:03:18;;;;;;;43.98;24.25;;;;;;;-1.31;90.23;100726.86;2166468;81;21500;-80
2022/11/28 07:06:20;;;;;;;47.98;27.93;;;;;;;-1.37;90.05;100731.08;2174500;81;20932;-82
2022/11/28 07:09:22;;;;;;;51.30;28.85;;;;;;;-1.36;90.41;100729.68;2168368;81;22374;-81
2022/11/28 07:12:23;;;;;;;54.05;29.42;;;;;;;-1.25;90.81;100728.31;2169738;81;20984;-82
2022/11/28 07:15:25;;;;;;;46.50;26.73;;;;;;;-1.22;90.65;100726.39;2159882;81;21035;-81
2022/11/28 07:18:26;;;;;;;45.30;26.42;;;;;;;-1.18;90.59;100731.02;2175367;81;21541;-82
2022/11/28 07:21:28;;;;;;;47.95;26.57;;;;;;;-1.16;90.53;100726.55;2157251;81;20972;-82
2022/11/28 07:24:30;;;;;;;55.63;29.20;;;;;;;-1.08;90.68;100717.89;2156239;81;21001;-82
2022/11/28 07:27:31;;;;;;;57.62;32.13;;;;;;;-1.02;90.75;100722.78;2161043;81;21002;-82
2022/11/28 07:30:33;;;;;;;67.50;35.73;;;;;;;-1.08;90.52;100712.68;2163834;81;21012;-82
2022/11/28 07:33:34;;;;;;;58.00;32.88;;;;;;;-1.16;90.59;100716.13;2162201;81;21490;-82
2022/11/28 07:36:36;;;;;;;59.93;32.20;;;;;;;-1.19;90.85;100711.91;2156625;81;20942;-82
2022/11/28 07:39:37;;;;;;;63.25;32.35;;;;;;;-1.18;91.15;100708.41;2165897;81;21031;-81
2022/11/28 07:42:39;;;;;;;59.67;32.98;;;;;;;-1.15;91.38;100704.81;2157840;81;21044;-81
2022/11/28 07:45:43;;;;;;;59.03;31.82;;;;;;;-1.10;91.63;100701.48;2175487;80;21069;-83
2022/11/28 07:48:46;;;;;;;62.95;33.60;;;;;;;-1.02;91.84;100700.64;2192287;80;20992;-82
2022/11/28 07:51:47;;;;;;;62.83;33.25;;;;;;;-0.98;91.95;100704.79;2187284;80;20981;-82
2022/11/28 07:54:49;;;;;;;64.77;33.18;;;;;;;-0.86;92.15;100704.61;2192410;80;21025;-83
2022/11/28 07:57:50;;;;;;;61.08;34.60;;;;;;;-0.70;92.41;100712.48;2187461;80;21529;-83
2022/11/28 08:00:51;;;;;;;65.57;35.10;;;;;;;-0.58;92.56;100705.31;2162430;82;21567;-82
2022/11/28 08:03:54;;;;;;;65.15;36.05;;;;;;;-0.50;92.41;100706.22;2188507;79;21017;-83
2022/11/28 08:06:55;;;;;;;70.72;37.35;;;;;;;-0.41;92.44;100708.33;2195369;79;21074;-83
2022/11/28 08:09:57;;;;;;;61.50;33.98;;;;;;;-0.33;92.50;100705.31;2162387;80;21062;-84
2022/11/28 08:12:58;;;;;;;66.53;34.00;;;;;;;-0.28;92.58;100703.31;2197093;80;21030;-84
2022/11/28 08:16:10;;;;;;;60.85;33.48;;;;;;;-0.23;92.49;100701.27;2191432;80;21025;-82
2022/11/28 08:19:11;;;;;;;60.52;36.05;;;;;;;-0.21;92.48;100702.03;2192991;80;21434;-82
2022/11/28 08:22:13;;;;;;;61.77;34.15;;;;;;;-0.19;92.48;100694.98;2193051;80;21025;-82
2022/11/28 08:25:14;;;;;;;56.45;33.30;;;;;;;-0.15;92.56;100699.09;2187954;80;21012;-83
2022/11/28 08:28:18;;;;;;;64.65;36.20;;;;;;;-0.13;92.60;100699.85;2190085;80;21078;-82
2022/11/28 08:31:25;;;;;;;63.73;35.10;;;;;;;-0.09;92.62;100696.60;2193504;80;20978;-83
2022/11/28 08:34:26;;;;;;;62.43;34.75;;;;;;;-0.07;92.66;100701.28;2166603;81;21091;-82
2022/11/28 08:37:28;;;;;;;63.30;35.38;;;;;;;-0.02;92.64;100688.36;2158364;80;21039;-83
2022/11/28 08:40:29;;;;;;;61.55;33.38;;;;;;;-0.02;92.64;100688.36;2174556;81;20981;-83
2022/11/28 08:43:30;;;;;;;54.98;30.23;;;;;;;0.05;92.94;100697.14;2176533;81;21029;-83
2022/11/28 08:46:32;;;;;;;55.52;30.08;;;;;;;0.11;93.00;100690.28;2153750;81;21082;-83
2022/11/28 08:49:36;;;;;;;56.10;31.17;;;;;;;0.18;93.01;100692.94;2150296;81;21071;-83
2022/11/28 08:52:37;;;;;;;53.63;31.25;;;;;;;0.22;92.96;100677.47;2155274;81;21101;-83
2022/11/28 08:55:41;;;;;;;51.75;28.60;;;;;;;0.28;93.00;100682.33;2147965;81;21049;-83
2022/11/28 08:58:42;;;;;;;58.78;30.12;;;;;;;0.34;93.09;100678.09;2153300;81;21122;-83
2022/11/28 09:01:43;;;;;;;54.85;29.42;;;;;;;0.40;93.09;100679.04;2188222;80;21023;-84
2022/11/28 09:04:44;;;;;;;50.20;28.07;;;;;;;0.49;93.16;100671.61;2188845;80;21500;-83
2022/11/28 09:07:45;;;;;;;46.53;25.52;;;;;;;0.57;93.21;100668.93;2148743;81;20997;-83
2022/11/28 09:10:47;;;;;;;51.92;27.37;;;;;;;0.67;93.33;100662.69;2154967;80;21021;-83
2022/11/28 09:13:48;;;;;;;50.55;26.55;;;;;;;0.81;93.41;100654.88;2160851;80;21063;-83
2022/11/28 09:16:49;;;;;;;50.38;27.65;;;;;;;1.00;93.38;100659.02;2149635;80;21004;-83
2022/11/28 09:19:50;;;;;;;48.95;26.97;;;;;;;1.12;93.20;100651.25;2145873;80;20965;-84
2022/11/28 09:22:52;;;;;;;53.65;28.95;;;;;;;1.27;93.06;100656.04;2145221;80;21056;-84
2022/11/28 09:25:53;;;;;;;47.48;23.85;;;;;;;1.40;92.92;100642.20;2146121;80;21813;-83
2022/11/28 09:28:54;;;;;;;47.48;26.73;;;;;;;1.53;92.79;100644.43;2146920;80;20989;-85
2022/11/28 09:31:55;;;;;;;49.25;25.68;;;;;;;1.66;92.28;100640.56;2145110;80;21025;-85
2022/11/28 09:34:56;;;;;;;56.68;29.80;;;;;;;1.78;92.18;100636.71;2150095;80;21685;-84
2022/11/28 09:37:57;;;;;;;44.50;24.40;;;;;;;1.93;92.32;100633.57;2153309;80;21027;-85
2022/11/28 09:41:01;;;;;;;49.63;26.75;;;;;;;2.12;92.08;100627.99;2154536;80;21613;-85
2022/11/28 09:44:24;;;;;;;45.48;25.68;;;;;;;2.30;92.07;100628.55;2154356;80;21464;-85
2022/11/28 09:47:31;;;;;;;46.35;26.23;;;;;;;2.47;91.64;100624.81;2205682;79;21109;-80
2022/11/28 09:50:34;;;;;;;46.80;25.35;;;;;;;2.57;91.51;100618.03;2234671;79;21080;-82
2022/11/28 09:54:04;;;;;;;42.60;24.57;;;;;;;2.66;90.62;100612.64;2215795;79;21021;-88
2022/11/28 09:57:26;;;;;;;47.48;27.55;;;;;;;2.68;90.33;100616.84;2189480;80;21057;-86
2022/11/28 10:00:37;;;;;;;46.68;25.55;;;;;;;2.71;90.17;100607.93;2174960;80;21058;-83
2022/11/28 10:03:55;;;;;;;49.18;25.80;;;;;;;2.75;90.24;100605.94;2191415;80;21029;-85
2022/11/28 10:07:14;;;;;;;45.90;25.82;;;;;;;2.79;90.05;100592.97;2190469;80;21540;-84
2022/11/28 10:10:37;;;;;;;41.50;22.60;;;;;;;2.83;89.71;100599.70;2190053;80;21103;-86
2022/11/28 10:13:53;;;;;;;45.75;24.80;;;;;;;2.87;89.54;100599.84;2193756;80;21061;-81
2022/11/28 10:17:11;;;;;;;43.00;24.27;;;;;;;2.94;89.84;100593.25;2190253;80;21009;-80
2022/11/28 10:20:28;;;;;;;44.65;24.85;;;;;;;3.03;89.56;100594.39;2188651;80;21053;-82
2022/11/28 10:23:42;;;;;;;42.38;24.55;;;;;;;3.17;91.61;100589.02;2194383;80;21115;-82
2022/11/28 10:26:51;;;;;;;43.83;23.92;;;;;;;3.76;91.46;100586.53;2163312;82;21018;-83
2022/11/28 10:30:00;;;;;;;40.65;24.02;;;;;;;3.80;89.47;100586.69;2168177;81;21581;-83
2022/11/28 10:33:26;;;;;;;38.00;23.05;;;;;;;3.90;88.70;100582.06;2170353;81;21017;-82
2022/11/28 10:36:54;;;;;;;38.65;22.77;;;;;;;4.00;87.80;100572.57;2170720;81;21010;-78
2022/11/28 10:39:58;;;;;;;40.95;22.70;;;;;;;4.08;88.36;100575.92;2170283;81;21061;-81
2022/11/28 10:43:32;;;;;;;39.10;22.98;;;;;;;4.16;87.88;100565.20;2149903;81;20990;-81
2022/11/28 10:46:56;;;;;;;36.10;21.30;;;;;;;4.20;86.77;100564.52;2175710;81;21078;-83
2022/11/28 10:50:12;;;;;;;35.33;21.55;;;;;;;4.36;87.55;100557.14;2179027;81;20986;-81
2022/11/28 10:53:30;;;;;;;35.60;21.80;;;;;;;4.51;86.00;100561.73;2170213;81;21002;-82
2022/11/28 10:56:48;;;;;;;34.70;19.98;;;;;;;4.71;86.83;100552.31;2164164;81;21041;-82
2022/11/28 11:00:20;;;;;;;38.40;21.90;;;;;;;4.82;85.22;100549.69;2171434;81;21650;-77
2022/11/28 11:03:21;;;;;;;40.15;22.17;;;;;;;4.87;85.38;100544.91;2158722;80;21080;-77
2022/11/28 11:06:26;;;;;;;33.25;18.85;;;;;;;4.90;84.52;100536.78;2175564;81;21069;-77
2022/11/28 11:09:27;;;;;;;31.25;18.48;;;;;;;5.02;85.42;100541.55;2169384;81;20994;-78
2022/11/28 11:12:31;;;;;;;32.38;19.62;;;;;;;4.96;84.53;100541.21;2175383;81;21598;-78
2022/11/28 11:15:34;;;;;;;28.90;19.10;;;;;;;5.05;83.90;100529.95;2162733;81;21467;-78
2022/11/28 11:18:47;;;;;;;31.00;18.77;;;;;;;5.12;84.11;100529.36;2174318;81;21051;-82
2022/11/28 11:22:27;;;;;;;29.05;17.02;;;;;;;5.26;83.96;100526.92;2173359;81;20978;-77
2022/11/28 11:25:30;;;;;;;30.77;17.85;;;;;;;5.46;84.03;100527.12;2172867;81;20971;-78
2022/11/28 11:28:39;;;;;;;28.07;17.90;;;;;;;5.68;84.04;100524.41;2164482;80;21051;-78
2022/11/28 11:31:43;;;;;;;23.07;14.25;;;;;;;5.72;82.49;100519.76;2201604;80;21038;-78
2022/11/28 11:34:45;;;;;;;24.25;14.70;;;;;;;5.81;80.71;100508.46;2176607;80;21049;-79
2022/11/28 11:37:46;;;;;;;25.75;14.83;;;;;;;5.88;80.05;100503.52;2191266;80;21018;-78
2022/11/28 11:40:51;;;;;;;22.40;13.18;;;;;;;5.94;78.50;100503.03;2191800;80;21017;-79
2022/11/28 11:43:52;;;;;;;23.87;14.73;;;;;;;5.95;77.71;100503.41;2186941;80;21515;-82
2022/11/28 11:47:04;;;;;;;23.65;14.70;;;;;;;5.87;75.51;100507.95;2191930;80;21532;-82
2022/11/28 11:50:08;;;;;;;22.42;13.70;;;;;;;5.78;76.07;100498.19;2193842;80;21470;-84
2022/11/28 11:53:14;;;;;;;22.77;14.15;;;;;;;5.77;76.26;100488.14;2194496;80;21037;-86
2022/11/28 11:56:15;;;;;;;23.73;14.35;;;;;;;5.73;73.91;100490.65;2199465;80;21194;-86
2022/11/28 11:59:34;;;;;;;21.93;14.43;;;;;;;5.70;73.07;100490.08;2193000;80;21014;-85
2022/11/28 12:02:40;;;;;;;24.80;14.45;;;;;;;5.64;73.21;100494.05;2195066;80;21045;-86
2022/11/28 12:06:04;;;;;;;23.07;14.53;;;;;;;5.53;74.29;100488.83;2196452;80;21069;-86
2022/11/28 12:09:35;;;;;;;25.25;14.25;;;;;;;5.48;73.39;100491.82;2191823;80;21077;-84
2022/11/28 12:12:38;;;;;;;22.25;13.90;;;;;;;5.49;74.39;100487.39;2187694;80;21634;-85
2022/11/28 12:16:01;;;;;;;24.32;14.33;;;;;;;5.57;74.75;100479.22;2196373;80;20986;-85
2022/11/28 12:19:23;;;;;;;24.60;14.80;;;;;;;5.60;73.12;100473.73;2197032;80;21016;-85
2022/11/28 12:22:38;;;;;;;24.65;13.95;;;;;;;5.62;72.29;100475.73;2193630;80;21056;-85
2022/11/28 12:26:00;;;;;;;23.73;14.20;;;;;;;5.65;74.25;100475.13;2194390;80;20974;-86
2022/11/28 12:29:32;;;;;;;22.77;14.23;;;;;;;5.60;73.41;100471.55;2184244;80;20994;-81
2022/11/28 12:33:12;;;;;;;23.00;13.58;;;;;;;5.59;72.63;100465.94;2196609;80;21073;-87
2022/11/28 12:36:28;;;;;;;23.75;14.43;;;;;;;5.56;71.06;100470.98;2193519;80;21032;-86
2022/11/28 12:40:00;;;;;;;21.75;13.88;;;;;;;5.56;71.87;100467.52;2196262;80;21028;-86
2022/11/28 12:43:35;;;;;;;23.45;14.93;;;;;;;5.62;72.54;100467.84;2187568;80;21068;-83
2022/11/28 12:46:53;;;;;;;23.80;14.47;;;;;;;5.68;71.96;100461.23;2155897;80;21053;-83
2022/11/28 12:50:32;;;;;;;20.75;13.80;;;;;;;5.66;71.67;100457.05;2189728;80;20986;-83
2022/11/28 12:54:04;;;;;;;24.35;14.23;;;;;;;5.65;72.58;100457.53;2156954;81;21045;-82
2022/11/28 12:57:22;;;;;;;26.82;14.03;;;;;;;5.72;72.47;100461.83;2172878;81;21080;-82
2022/11/28 13:00:26;;;;;;;24.43;14.00;;;;;;;5.64;71.22;100469.04;2161949;81;21044;-81
2022/11/28 13:03:54;;;;;;;24.15;14.43;;;;;;;5.62;71.32;100455.16;2173530;80;20991;-85
2022/11/28 13:07:35;;;;;;;21.02;12.82;;;;;;;5.56;72.03;100461.77;2170766;81;21033;-80
2022/11/28 13:10:49;;;;;;;22.13;14.40;;;;;;;5.57;72.31;100461.28;2186785;80;21014;-81
2022/11/28 13:14:11;;;;;;;22.85;14.28;;;;;;;5.51;71.34;100457.35;2195323;80;21044;-79
2022/11/28 13:17:30;;;;;;;21.45;13.85;;;;;;;5.46;71.55;100461.32;2192351;80;21048;-79
2022/11/28 13:20:57;;;;;;;23.57;14.58;;;;;;;5.39;71.82;100452.62;2194994;80;21511;-79
2022/11/28 13:24:39;;;;;;;20.17;13.13;;;;;;;5.35;71.93;100448.58;2193601;80;21497;-79
2022/11/28 13:28:07;;;;;;;24.72;15.15;;;;;;;5.31;72.47;100457.66;2188163;80;21005;-78
2022/11/28 13:31:35;;;;;;;25.12;14.03;;;;;;;5.17;72.53;100455.31;2196426;80;21021;-78
2022/11/28 13:34:38;;;;;;;25.72;14.30;;;;;;;5.04;72.85;100446.73;2192824;80;21599;-78
2022/11/28 13:38:08;;;;;;;22.37;13.55;;;;;;;4.90;73.37;100457.89;2188648;80;21048;-78
2022/11/28 13:41:21;;;;;;;26.05;15.60;;;;;;;4.78;73.37;100458.84;2190986;80;20998;-79
2022/11/28 13:44:34;;;;;;;24.77;14.85;;;;;;;4.65;73.33;100459.48;2186602;80;21013;-78
2022/11/28 13:47:36;;;;;;;23.92;13.68;;;;;;;4.57;73.75;100452.66;2195411;80;21514;-78
2022/11/28 13:50:40;;;;;;;22.80;13.13;;;;;;;4.46;73.94;100449.56;2189455;80;21049;-78
2022/11/28 13:53:43;;;;;;;27.40;14.38;;;;;;;4.35;74.25;100446.44;2165981;80;21012;-78
2022/11/28 13:56:47;;;;;;;27.10;14.28;;;;;;;4.29;74.43;100452.66;2169184;81;21049;-78
2022/11/28 14:00:03;;;;;;;25.97;14.18;;;;;;;4.20;74.63;100455.52;2182710;81;20986;-78
2022/11/28 14:03:18;;;;;;;24.47;14.35;;;;;;;4.10;74.82;100451.42;2169889;81;21102;-78
2022/11/28 14:06:24;;;;;;;22.93;13.68;;;;;;;4.01;74.99;100454.28;2174289;81;21022;-78
2022/11/28 14:10:03;;;;;;;27.27;15.75;;;;;;;3.95;75.16;100465.25;2185456;81;20964;-78
2022/11/28 14:13:25;;;;;;;25.55;15.28;;;;;;;3.87;75.38;100459.73;2210097;80;21100;-78
2022/11/28 14:16:38;;;;;;;29.35;15.43;;;;;;;3.76;75.65;100456.59;2173406;81;21054;-78
2022/11/28 14:19:47;;;;;;;29.57;16.02;;;;;;;3.69;75.71;100450.15;2190476;79;21036;-78
2022/11/28 14:23:09;;;;;;;30.37;16.20;;;;;;;3.66;75.95;100454.77;2171077;80;21084;-78